Time;durP1;ratioP1;P1;durP2;ratioP2;P2;SDS_P1;SDS_P2;PMS_P1;PMS_P2;Temp;Humidity;BMP_temperature;BMP_pressure;BME280_temperature;BME280_humidity;BME280_pressure;Samples;Min_cycle;Max_cycle;Signal;HPM_P1;HPM_P2
2022/12/30 00:01:24;;;;;;;14.50;2.03;;;6.80;99.90;;;;;;5033249;28;20026;-77
2022/12/30 00:03:51;;;;;;;10.30;1.87;;;6.80;99.90;;;;;;5033108;28;20030;-77
2022/12/30 00:06:20;;;;;;;10.97;2.07;;;6.80;99.90;;;;;;5031609;28;20490;-77
2022/12/30 00:08:52;;;;;;;10.63;1.60;;;6.80;99.90;;;;;;5031806;28;20025;-78
2022/12/30 00:11:25;;;;;;;14.87;2.13;;;6.70;99.90;;;;;;5031718;28;20025;-79
2022/12/30 00:34:08;;;;;;;10.40;2.53;;;6.50;99.90;;;;;;5033184;28;20029;-79
2022/12/30 00:36:34;;;;;;;18.53;2.70;;;6.50;99.90;;;;;;5031653;28;20473;-79
2022/12/30 00:39:00;;;;;;;9.77;1.73;;;6.50;99.90;;;;;;5031643;28;20025;-79
2022/12/30 00:44:10;;;;;;;15.82;2.50;;;6.50;99.90;;;;;;5033078;28;20041;-79
2022/12/30 00:46:38;;;;;;;9.03;1.70;;;6.50;99.90;;;;;;5014965;28;20466;-79
2022/12/30 00:57:16;;;;;;;10.75;2.25;;;6.50;99.90;;;;;;5035647;28;20118;-79
2022/12/30 00:59:41;;;;;;;14.80;2.33;;;6.50;99.90;;;;;;5035026;28;20045;-79
2022/12/30 01:02:07;;;;;;;18.10;1.70;;;6.40;99.90;;;;;;5018669;28;20481;-79
2022/12/30 01:04:33;;;;;;;8.63;1.40;;;6.40;99.90;;;;;;5034871;28;20025;-79
2022/12/30 01:06:59;;;;;;;11.50;1.40;;;6.50;99.90;;;;;;5034842;28;20401;-79
2022/12/30 01:09:24;;;;;;;10.40;1.43;;;6.40;99.90;;;;;;5035072;28;20125;-79
2022/12/30 01:12:07;;;;;;;18.00;1.83;;;6.40;99.90;;;;;;5018664;28;20120;-79
2022/12/30 01:14:39;;;;;;;10.23;1.53;;;6.50;99.90;;;;;;5034866;28;20048;-79
2022/12/30 01:17:06;;;;;;;15.23;2.30;;;6.40;99.90;;;;;;5019041;28;20033;-79
2022/12/30 01:19:32;;;;;;;9.47;1.40;;;6.30;99.90;;;;;;5018222;28;20033;-79
2022/12/30 01:21:57;;;;;;;10.93;1.80;;;6.30;99.90;;;;;;5034676;28;20108;-79
2022/12/30 01:24:23;;;;;;;10.17;2.50;;;6.30;99.90;;;;;;5018256;28;20036;-79
2022/12/30 01:26:49;;;;;;;11.23;2.20;;;6.30;99.90;;;;;;5018056;28;20120;-79
2022/12/30 01:29:44;;;;;;;10.20;1.47;;;6.30;99.90;;;;;;5017992;28;20118;-79
2022/12/30 01:32:16;;;;;;;11.27;1.97;;;6.30;99.90;;;;;;5042703;28;20122;-79
2022/12/30 01:34:43;;;;;;;18.30;1.70;;;6.30;99.90;;;;;;5034328;28;20031;-79
2022/12/30 01:37:09;;;;;;;11.63;1.67;;;6.30;99.90;;;;;;5034337;28;20025;-79
2022/12/30 01:39:35;;;;;;;11.87;1.67;;;6.30;99.90;;;;;;5034316;28;20022;-79
2022/12/30 01:42:02;;;;;;;7.73;1.40;;;6.20;99.90;;;;;;5017839;28;20030;-79
2022/12/30 01:44:49;;;;;;;10.07;1.67;;;6.30;99.90;;;;;;5017886;28;20057;-79
2022/12/30 01:47:24;;;;;;;10.53;1.80;;;6.20;99.90;;;;;;5034101;28;20033;-79
2022/12/30 01:49:53;;;;;;;7.33;1.70;;;6.20;99.90;;;;;;5034111;28;20037;-79
2022/12/30 01:52:23;;;;;;;7.33;1.10;;;6.20;99.90;;;;;;5033977;28;20036;-79
2022/12/30 01:54:50;;;;;;;8.63;2.00;;;6.20;99.90;;;;;;5034069;28;20029;-79
2022/12/30 01:57:16;;;;;;;11.30;1.50;;;6.20;99.90;;;;;;5017581;28;20060;-79
2022/12/30 01:59:43;;;;;;;15.87;2.30;;;6.10;99.90;;;;;;5017395;28;20033;-78
2022/12/30 02:02:10;;;;;;;9.00;1.90;;;6.20;99.90;;;;;;5017477;28;20064;-78
2022/12/30 02:04:35;;;;;;;7.83;1.20;;;6.10;99.90;;;;;;5033636;28;20060;-78
2022/12/30 02:07:16;;;;;;;7.87;1.50;;;6.10;99.90;;;;;;5017227;28;20061;-78
2022/12/30 02:09:44;;;;;;;11.23;1.37;;;6.10;99.90;;;;;;5033716;28;20075;-78
2022/12/30 02:12:11;;;;;;;11.00;1.43;;;6.20;99.90;;;;;;5033580;28;20544;-79
2022/12/30 02:14:38;;;;;;;9.10;2.30;;;6.10;99.90;;;;;;5017591;28;20437;-79
2022/12/30 02:17:35;;;;;;;8.20;1.43;;;6.20;99.90;;;;;;5034884;28;20030;-78
2022/12/30 02:20:39;;;;;;;11.83;1.70;;;6.10;99.90;;;;;;5033317;28;20512;-78
2022/12/30 02:23:04;;;;;;;12.00;1.87;;;6.10;99.90;;;;;;5047983;28;20060;-79
2022/12/30 02:25:55;;;;;;;7.93;1.60;;;6.00;99.90;;;;;;5034755;28;20025;-79
2022/12/30 02:29:01;;;;;;;11.83;1.60;;;6.00;99.90;;;;;;5033513;28;20061;-79
2022/12/30 02:31:30;;;;;;;17.17;2.00;;;6.00;99.90;;;;;;5034416;28;20474;-79
2022/12/30 02:34:11;;;;;;;8.87;1.40;;;6.00;99.90;;;;;;5033307;28;20486;-79
2022/12/30 02:36:55;;;;;;;10.53;1.50;;;5.90;99.90;;;;;;5033422;28;20488;-78
2022/12/30 02:39:42;;;;;;;8.27;1.92;;;5.90;99.90;;;;;;5033270;28;20037;-78
2022/12/30 02:45:15;;;;;;;8.17;1.70;;;5.90;99.90;;;;;;5034437;28;20029;-78
2022/12/30 02:48:17;;;;;;;13.30;1.93;;;5.90;99.90;;;;;;5033129;28;20520;-78
2022/12/30 02:53:32;;;;;;;12.47;2.23;;;5.90;99.90;;;;;;5033565;28;20053;-79
2022/12/30 02:55:58;;;;;;;17.30;2.10;;;5.90;99.90;;;;;;5032754;28;20473;-79
2022/12/30 02:58:27;;;;;;;10.47;1.80;;;5.90;99.90;;;;;;5034416;28;20029;-79
2022/12/30 03:04:06;;;;;;;13.77;1.83;;;5.90;99.90;;;;;;5034295;28;20508;-79
2022/12/30 03:06:38;;;;;;;16.87;3.57;;;6.00;99.90;;;;;;5030753;28;20053;-79
2022/12/30 03:09:28;;;;;;;14.00;2.17;;;5.90;99.90;;;;;;5034029;28;20140;-78
2022/12/30 03:12:02;;;;;;;17.37;2.90;;;5.90;99.90;;;;;;5032675;28;20029;-78
2022/12/30 03:14:48;;;;;;;9.67;1.80;;;5.90;99.90;;;;;;5032368;28;20385;-78
2022/12/30 03:17:25;;;;;;;17.30;2.40;;;5.90;99.90;;;;;;5033844;28;20037;-78
2022/12/30 03:19:57;;;;;;;13.80;2.60;;;5.80;99.90;;;;;;5032616;28;20454;-79
2022/12/30 03:27:58;;;;;;;16.27;2.77;;;6.00;99.90;;;;;;5033968;28;20043;-79
2022/12/30 03:30:24;;;;;;;11.63;1.80;;;5.90;99.90;;;;;;5033577;28;20022;-79
2022/12/30 03:32:50;;;;;;;11.47;2.00;;;5.90;99.90;;;;;;5032301;28;20029;-79
2022/12/30 03:35:18;;;;;;;10.13;1.50;;;5.90;99.90;;;;;;5015923;28;20051;-78
2022/12/30 03:37:51;;;;;;;15.03;2.13;;;5.90;99.90;;;;;;5015959;28;20030;-79
2022/12/30 03:40:19;;;;;;;13.13;2.23;;;5.90;99.90;;;;;;5032125;28;20025;-78
2022/12/30 03:42:50;;;;;;;16.37;2.40;;;5.90;99.90;;;;;;5031939;28;20037;-79
2022/12/30 03:45:17;;;;;;;13.90;2.10;;;5.80;99.90;;;;;;5015758;28;20056;-79
2022/12/30 03:47:42;;;;;;;17.07;2.47;;;5.80;99.90;;;;;;5015761;28;20018;-79
2022/12/30 03:50:08;;;;;;;15.77;1.80;;;5.80;99.90;;;;;;5015621;28;20120;-79
2022/12/30 03:52:34;;;;;;;16.63;2.30;;;5.80;99.90;;;;;;5015684;28;20075;-79
2022/12/30 03:55:00;;;;;;;9.13;1.47;;;5.80;99.90;;;;;;5015512;28;20390;-79
2022/12/30 03:57:25;;;;;;;10.40;1.83;;;5.90;99.90;;;;;;5015886;28;20044;-79
2022/12/30 03:59:51;;;;;;;15.47;1.90;;;5.80;99.90;;;;;;5032069;28;20116;-79
2022/12/30 04:02:16;;;;;;;12.13;2.57;;;5.80;99.90;;;;;;5032005;28;20017;-79
2022/12/30 04:04:42;;;;;;;13.87;2.20;;;5.80;99.90;;;;;;5015160;28;20485;-77
2022/12/30 04:07:08;;;;;;;10.10;2.07;;;5.80;99.90;;;;;;5031821;28;20072;-77
2022/12/30 04:09:33;;;;;;;13.90;1.97;;;5.70;99.90;;;;;;5015329;28;20021;-77
2022/12/30 04:11:59;;;;;;;17.50;2.87;;;5.70;99.90;;;;;;5031818;28;20032;-77
2022/12/30 04:14:25;;;;;;;15.93;2.10;;;5.70;99.90;;;;;;5015564;28;20026;-77
2022/12/30 04:16:50;;;;;;;14.30;1.97;;;5.70;99.90;;;;;;5015296;28;20068;-77
2022/12/30 04:19:16;;;;;;;11.30;2.20;;;5.70;99.90;;;;;;5031651;28;20113;-77
2022/12/30 04:21:42;;;;;;;14.60;2.13;;;5.70;99.90;;;;;;5015235;28;20117;-77
2022/12/30 04:24:07;;;;;;;10.30;2.23;;;5.70;99.90;;;;;;5015299;28;20033;-77
2022/12/30 04:26:33;;;;;;;13.43;2.33;;;5.70;99.90;;;;;;5015679;28;20033;-76
2022/12/30 04:28:59;;;;;;;12.30;1.80;;;5.60;99.90;;;;;;5019211;28;20079;-76
2022/12/30 04:31:25;;;;;;;18.00;3.70;;;5.60;99.90;;;;;;5019295;28;20117;-77
2022/12/30 04:33:52;;;;;;;12.33;1.97;;;5.60;99.90;;;;;;5035579;28;20029;-77
2022/12/30 04:36:19;;;;;;;14.13;2.50;;;5.50;99.90;;;;;;5035523;28;20017;-76
2022/12/30 04:38:44;;;;;;;12.13;2.53;;;5.60;99.90;;;;;;5019368;28;20183;-76
2022/12/30 04:41:11;;;;;;;13.03;2.60;;;5.60;99.90;;;;;;5019295;28;20481;-77
2022/12/30 04:43:37;;;;;;;13.30;3.20;;;5.60;99.90;;;;;;5019062;28;20022;-77
2022/12/30 04:46:03;;;;;;;13.63;2.30;;;5.50;99.90;;;;;;5035246;28;20095;-77
2022/12/30 04:48:28;;;;;;;16.43;2.97;;;5.50;99.90;;;;;;5035134;28;20033;-77
2022/12/30 04:50:54;;;;;;;11.80;2.10;;;5.50;99.90;;;;;;5018739;28;20032;-76
2022/12/30 04:53:20;;;;;;;19.27;2.57;;;5.50;99.90;;;;;;5018736;28;20089;-77
2022/12/30 04:55:50;;;;;;;15.53;2.60;;;5.40;99.90;;;;;;5035302;28;20492;-76
2022/12/30 04:58:15;;;;;;;13.80;2.00;;;5.50;99.90;;;;;;5035026;28;20026;-76
2022/12/30 05:00:41;;;;;;;19.63;2.70;;;5.40;99.90;;;;;;5035183;28;20040;-76
2022/12/30 05:03:07;;;;;;;17.43;2.77;;;5.50;99.90;;;;;;5035138;28;20478;-76
2022/12/30 05:05:32;;;;;;;20.77;3.57;;;5.40;99.90;;;;;;5034834;28;20498;-77
2022/12/30 05:07:58;;;;;;;15.17;2.40;;;5.40;99.90;;;;;;5036232;28;20026;-76
2022/12/30 05:10:24;;;;;;;14.57;1.67;;;5.40;99.90;;;;;;5018446;28;20036;-76
2022/12/30 05:12:49;;;;;;;10.67;1.77;;;5.30;99.90;;;;;;5018528;28;20116;-77
2022/12/30 05:15:15;;;;;;;14.00;2.60;;;5.40;99.90;;;;;;5018278;28;20030;-76
2022/12/30 05:17:41;;;;;;;13.77;2.27;;;5.30;99.90;;;;;;5034580;28;20095;-76
2022/12/30 05:20:07;;;;;;;14.60;2.47;;;5.40;99.90;;;;;;5034755;28;20036;-76
2022/12/30 05:22:32;;;;;;;13.93;2.37;;;5.30;99.90;;;;;;5034535;28;20022;-77
2022/12/30 05:27:42;;;;;;;17.02;3.78;;;5.40;99.90;;;;;;5035205;28;20097;-77
2022/12/30 05:30:08;;;;;;;16.33;3.20;;;5.30;99.90;;;;;;5018035;28;20108;-77
2022/12/30 05:32:33;;;;;;;15.20;2.70;;;5.30;99.90;;;;;;5034352;28;20564;-77
2022/12/30 05:34:59;;;;;;;15.93;2.87;;;5.30;99.90;;;;;;5017984;28;20121;-77
2022/12/30 05:37:25;;;;;;;15.53;2.50;;;5.30;99.90;;;;;;5017385;28;20028;-77
2022/12/30 05:39:50;;;;;;;15.70;2.20;;;5.30;99.90;;;;;;5017840;28;20028;-77
2022/12/30 05:42:16;;;;;;;15.97;2.80;;;5.30;99.90;;;;;;5017666;28;20482;-78
2022/12/30 05:44:42;;;;;;;21.47;2.40;;;5.20;99.90;;;;;;5032684;28;20034;-78
2022/12/30 05:47:07;;;;;;;13.33;2.60;;;5.30;99.90;;;;;;5017828;28;20060;-78
2022/12/30 05:49:33;;;;;;;13.67;1.97;;;5.30;99.90;;;;;;5033452;28;20493;-78
2022/12/30 05:51:59;;;;;;;21.07;2.87;;;5.30;99.90;;;;;;5033553;28;20432;-78
2022/12/30 05:54:24;;;;;;;16.83;2.60;;;5.30;99.90;;;;;;5033914;28;20068;-77
2022/12/30 05:56:50;;;;;;;12.70;2.40;;;5.30;99.90;;;;;;5013654;28;20037;-77
2022/12/30 05:59:16;;;;;;;20.97;2.93;;;5.30;99.90;;;;;;5012813;28;20390;-78
2022/12/30 06:01:41;;;;;;;17.40;2.87;;;5.50;99.90;;;;;;5014464;28;20052;-77
2022/12/30 06:04:07;;;;;;;12.80;2.83;;;5.30;99.90;;;;;;5014278;28;20109;-78
2022/12/30 06:06:32;;;;;;;13.33;2.70;;;5.40;99.90;;;;;;5013885;28;20041;-77
2022/12/30 06:08:58;;;;;;;18.43;2.50;;;5.40;99.90;;;;;;5014426;28;20033;-78
2022/12/30 06:11:24;;;;;;;15.47;2.23;;;5.40;99.90;;;;;;5014036;28;20026;-78
2022/12/30 06:13:50;;;;;;;16.97;2.40;;;5.40;99.90;;;;;;5013973;28;20030;-78
2022/12/30 06:16:15;;;;;;;23.37;3.23;;;5.40;99.90;;;;;;5014273;28;20034;-78
2022/12/30 06:18:41;;;;;;;19.53;2.73;;;5.40;99.90;;;;;;5030476;28;20545;-78
2022/12/30 06:21:07;;;;;;;21.60;2.73;;;5.40;99.90;;;;;;5013950;28;20406;-78
2022/12/30 06:23:32;;;;;;;10.07;2.00;;;5.40;99.90;;;;;;5013793;28;20030;-78
2022/12/30 06:25:59;;;;;;;19.37;2.87;;;5.40;99.90;;;;;;5014102;28;20034;-77
2022/12/30 06:28:26;;;;;;;14.70;2.80;;;5.40;99.90;;;;;;5030254;28;20030;-78
2022/12/30 06:30:52;;;;;;;19.93;2.67;;;5.40;99.90;;;;;;5014091;28;20125;-78
2022/12/30 06:33:18;;;;;;;15.67;2.60;;;5.50;99.90;;;;;;5015888;28;20121;-78
2022/12/30 06:35:45;;;;;;;14.67;2.73;;;5.50;99.90;;;;;;5033602;28;20044;-77
2022/12/30 06:38:10;;;;;;;17.63;2.93;;;5.50;99.90;;;;;;5031656;28;20034;-77
2022/12/30 06:40:36;;;;;;;17.00;3.60;;;5.50;99.90;;;;;;5016364;28;20493;-77
2022/12/30 06:43:02;;;;;;;18.63;3.00;;;5.50;99.90;;;;;;5016588;28;20029;-78
2022/12/30 06:45:27;;;;;;;17.43;3.33;;;5.50;99.90;;;;;;5016187;28;20033;-79
2022/12/30 06:47:53;;;;;;;17.20;3.00;;;5.50;99.90;;;;;;5032521;28;20025;-78
2022/12/30 06:50:19;;;;;;;16.20;2.80;;;5.50;99.90;;;;;;5032193;28;20029;-78
2022/12/30 06:52:44;;;;;;;18.27;2.67;;;5.50;99.90;;;;;;5016486;28;20029;-78
2022/12/30 06:55:10;;;;;;;18.40;2.70;;;5.50;99.90;;;;;;5033055;28;20473;-78
2022/12/30 06:57:36;;;;;;;20.73;2.83;;;5.50;99.90;;;;;;5016476;28;20470;-78
2022/12/30 07:00:04;;;;;;;16.97;2.20;;;5.50;99.90;;;;;;5032901;28;20095;-78
2022/12/30 07:02:30;;;;;;;21.50;3.30;;;5.50;99.90;;;;;;5034177;28;20030;-78
2022/12/30 07:04:55;;;;;;;14.40;3.13;;;5.50;99.90;;;;;;5015926;28;20037;-78
2022/12/30 07:07:21;;;;;;;11.43;2.47;;;5.50;99.90;;;;;;5032651;28;20029;-78
2022/12/30 07:09:47;;;;;;;16.33;2.27;;;5.50;99.90;;;;;;5016258;28;20412;-78
2022/12/30 07:12:13;;;;;;;23.07;3.70;;;5.50;99.90;;;;;;5032604;28;20104;-78
2022/12/30 07:14:38;;;;;;;17.37;3.60;;;5.50;99.90;;;;;;5032809;28;20108;-78
2022/12/30 07:17:04;;;;;;;14.27;2.17;;;5.50;99.90;;;;;;5016079;28;20478;-77
2022/12/30 07:19:30;;;;;;;20.60;3.70;;;5.60;99.90;;;;;;5032525;28;20040;-78
2022/12/30 07:21:55;;;;;;;20.67;3.27;;;5.50;99.90;;;;;;5015985;28;20025;-78
2022/12/30 07:24:21;;;;;;;20.87;3.63;;;5.50;99.90;;;;;;5032452;28;20025;-78
2022/12/30 07:26:46;;;;;;;17.60;4.17;;;5.50;99.90;;;;;;5032429;28;20394;-78
2022/12/30 07:29:12;;;;;;;15.70;3.00;;;5.50;99.90;;;;;;5015905;28;20176;-78
2022/12/30 07:31:39;;;;;;;22.70;3.77;;;5.50;99.90;;;;;;5032187;28;20077;-78
2022/12/30 07:34:05;;;;;;;18.83;3.30;;;5.50;99.90;;;;;;5032294;28;20026;-77
2022/12/30 07:36:31;;;;;;;14.40;3.47;;;5.50;99.90;;;;;;5033692;28;20033;-78
2022/12/30 07:39:00;;;;;;;14.93;2.63;;;5.60;99.90;;;;;;5032293;28;20025;-78
2022/12/30 07:41:26;;;;;;;12.83;2.50;;;5.50;99.90;;;;;;5032221;28;20029;-78
2022/12/30 07:43:52;;;;;;;16.10;3.00;;;5.50;99.90;;;;;;5015833;28;20083;-78
2022/12/30 07:46:19;;;;;;;19.97;3.43;;;5.50;99.90;;;;;;5032184;28;20025;-78
2022/12/30 07:48:44;;;;;;;17.87;3.27;;;5.60;99.90;;;;;;5033586;28;20547;-78
2022/12/30 07:51:13;;;;;;;15.50;3.70;;;5.60;99.90;;;;;;5031967;28;20129;-78
2022/12/30 07:53:38;;;;;;;19.33;3.30;;;5.60;99.90;;;;;;5031925;28;20199;-79
2022/12/30 07:56:06;;;;;;;16.50;3.00;;;5.60;99.90;;;;;;5031484;28;20090;-79
2022/12/30 07:58:32;;;;;;;13.63;2.50;;;5.70;99.90;;;;;;5031585;28;20377;-79
2022/12/30 08:00:58;;;;;;;17.63;2.97;;;5.70;99.90;;;;;;5031823;28;20056;-79
2022/12/30 08:03:23;;;;;;;14.43;3.00;;;5.70;99.90;;;;;;5015427;28;20030;-79
2022/12/30 08:05:49;;;;;;;15.03;2.83;;;5.70;99.90;;;;;;5015042;28;20398;-79
2022/12/30 08:08:15;;;;;;;15.20;3.73;;;5.80;99.90;;;;;;5015303;28;20029;-79
2022/12/30 08:10:40;;;;;;;16.17;3.57;;;5.80;99.90;;;;;;5031675;28;20025;-79
2022/12/30 08:13:06;;;;;;;15.83;2.70;;;5.80;99.90;;;;;;5033213;28;20428;-79
2022/12/30 08:15:31;;;;;;;18.33;3.37;;;5.80;99.90;;;;;;5015218;28;20057;-79
2022/12/30 08:17:57;;;;;;;21.17;3.00;;;5.90;99.90;;;;;;5031844;28;20056;-79
2022/12/30 08:20:23;;;;;;;12.60;2.73;;;5.90;99.90;;;;;;5015334;28;20113;-79
2022/12/30 08:22:48;;;;;;;10.83;3.10;;;5.90;99.90;;;;;;5015375;28;20056;-79
2022/12/30 08:25:14;;;;;;;10.07;2.57;;;6.00;99.90;;;;;;5014648;28;20087;-78
2022/12/30 08:27:40;;;;;;;17.30;2.67;;;6.00;99.90;;;;;;5031177;28;20032;-80
2022/12/30 08:30:06;;;;;;;14.43;2.83;;;6.00;99.90;;;;;;5014780;28;20030;-79
2022/12/30 08:32:31;;;;;;;17.73;3.43;;;6.10;99.90;;;;;;5014905;28;20049;-79
2022/12/30 08:34:57;;;;;;;8.53;2.23;;;6.10;99.90;;;;;;5031644;28;20060;-78
2022/12/30 08:37:23;;;;;;;15.03;2.70;;;6.20;99.90;;;;;;5031022;28;20440;-79
2022/12/30 08:39:48;;;;;;;11.03;2.40;;;6.20;99.90;;;;;;5031020;28;20608;-78
2022/12/30 08:42:14;;;;;;;10.43;1.87;;;6.20;99.90;;;;;;5031203;28;20022;-79
2022/12/30 08:44:39;;;;;;;15.90;2.67;;;6.30;99.90;;;;;;5014532;28;20026;-79
2022/12/30 08:47:05;;;;;;;12.53;2.47;;;6.40;99.90;;;;;;5015076;28;20075;-79
2022/12/30 08:49:31;;;;;;;13.90;2.53;;;6.40;99.90;;;;;;5031484;28;20485;-79
2022/12/30 08:51:56;;;;;;;8.57;1.93;;;6.40;99.90;;;;;;5031497;28;20393;-79
2022/12/30 08:54:22;;;;;;;10.77;2.47;;;6.50;99.90;;;;;;5015063;28;20026;-79
2022/12/30 08:56:48;;;;;;;13.40;2.30;;;6.50;99.90;;;;;;5031377;28;20477;-79
2022/12/30 08:59:14;;;;;;;11.57;2.30;;;6.60;99.90;;;;;;5015052;28;20442;-78
2022/12/30 09:01:40;;;;;;;10.03;1.90;;;6.60;99.90;;;;;;5031176;28;20017;-79
2022/12/30 09:04:08;;;;;;;12.03;1.93;;;6.60;99.90;;;;;;5014904;28;20419;-80
2022/12/30 09:06:36;;;;;;;14.50;2.17;;;6.60;99.90;;;;;;5030739;28;20489;-79
2022/12/30 09:09:04;;;;;;;11.83;2.40;;;6.70;99.90;;;;;;5029961;28;20057;-80
2022/12/30 09:11:32;;;;;;;16.53;2.93;;;6.80;99.90;;;;;;5032136;28;20018;-80
2022/12/30 09:14:00;;;;;;;6.97;1.60;;;6.80;99.90;;;;;;5033038;28;20025;-79
2022/12/30 09:16:27;;;;;;;17.33;2.80;;;6.80;99.90;;;;;;5035935;28;20029;-79
2022/12/30 09:18:53;;;;;;;8.90;1.60;;;6.90;99.90;;;;;;5033946;28;20110;-80
2022/12/30 09:21:19;;;;;;;10.23;1.90;;;6.90;99.90;;;;;;5017447;28;20018;-80
2022/12/30 09:23:45;;;;;;;8.03;1.23;;;7.00;99.90;;;;;;5017780;28;20068;-80
2022/12/30 09:26:16;;;;;;;7.43;1.50;;;7.00;99.90;;;;;;5034666;28;20069;-82
2022/12/30 09:28:42;;;;;;;11.27;1.83;;;7.10;99.90;;;;;;5033985;28;20030;-79
2022/12/30 09:31:08;;;;;;;10.63;1.30;;;7.10;99.90;;;;;;5017591;28;20071;-80
2022/12/30 09:33:34;;;;;;;8.53;1.60;;;7.20;99.90;;;;;;5034041;28;20010;-82
2022/12/30 09:35:59;;;;;;;8.23;1.43;;;7.20;99.90;;;;;;5017558;28;20022;-79
2022/12/30 09:38:25;;;;;;;7.90;1.40;;;7.30;99.90;;;;;;5035040;28;20057;-79
2022/12/30 09:41:07;;;;;;;8.77;1.30;;;7.40;99.90;;;;;;5017733;28;20021;-80
2022/12/30 09:43:51;;;;;;;6.20;1.47;;;7.40;99.90;;;;;;5033789;28;20029;-79
2022/12/30 09:46:43;;;;;;;8.03;1.57;;;7.40;99.90;;;;;;5035214;28;20021;-79
2022/12/30 09:49:21;;;;;;;8.03;1.63;;;7.50;99.90;;;;;;5034085;28;20064;-78
2022/12/30 09:51:54;;;;;;;7.83;1.40;;;7.50;99.90;;;;;;5034200;28;20022;-78
2022/12/30 09:54:24;;;;;;;8.40;1.53;;;7.60;99.90;;;;;;5034156;28;20018;-78
2022/12/30 09:56:57;;;;;;;6.73;1.30;;;7.60;99.90;;;;;;5035477;28;20022;-78
2022/12/30 09:59:35;;;;;;;10.63;1.90;;;7.60;99.90;;;;;;5033846;28;20026;-78
2022/12/30 10:02:21;;;;;;;12.37;1.47;;;7.60;99.90;;;;;;5035278;28;20017;-79
2022/12/30 10:04:46;;;;;;;7.03;1.10;;;7.70;99.90;;;;;;5033822;28;20021;-79
2022/12/30 10:07:38;;;;;;;7.40;1.30;;;7.70;99.90;;;;;;5017071;28;20099;-78
2022/12/30 10:10:27;;;;;;;4.90;1.10;;;7.70;99.90;;;;;;5023218;28;20092;-78
2022/12/30 10:13:07;;;;;;;7.20;1.30;;;7.70;99.90;;;;;;5033235;28;20111;-78
2022/12/30 10:15:58;;;;;;;5.53;0.90;;;7.70;99.90;;;;;;5034741;28;20044;-78
2022/12/30 10:18:36;;;;;;;9.87;1.60;;;7.80;99.90;;;;;;5033916;28;20017;-79
2022/12/30 10:21:14;;;;;;;8.03;1.37;;;7.80;99.90;;;;;;5034864;28;20424;-79
2022/12/30 10:23:48;;;;;;;5.33;1.03;;;7.80;99.90;;;;;;5034907;28;20026;-79
2022/12/30 10:26:24;;;;;;;11.27;1.47;;;7.90;99.90;;;;;;5034698;28;20052;-78
2022/12/30 10:28:58;;;;;;;12.40;1.60;;;7.90;99.90;;;;;;5034865;28;20018;-78
2022/12/30 10:31:27;;;;;;;6.25;1.20;;;7.90;99.90;;;;;;5034855;28;20469;-78
2022/12/30 10:33:59;;;;;;;8.17;1.10;;;7.90;99.90;;;;;;5034617;28;20025;-79
2022/12/30 10:36:42;;;;;;;10.30;1.60;;;7.90;99.90;;;;;;5033300;28;20025;-78
2022/12/30 10:39:24;;;;;;;8.30;1.13;;;8.00;99.90;;;;;;5034485;28;20104;-78
2022/12/30 10:41:52;;;;;;;7.27;1.23;;;8.00;99.90;;;;;;5033227;28;20029;-78
2022/12/30 10:44:23;;;;;;;9.57;1.20;;;8.00;99.90;;;;;;5033334;28;20540;-78
2022/12/30 10:47:13;;;;;;;7.60;1.27;;;8.10;99.90;;;;;;5034138;28;20132;-78
2022/12/30 10:49:41;;;;;;;7.13;1.73;;;8.10;99.90;;;;;;5032587;28;20099;-78
2022/12/30 10:52:10;;;;;;;4.10;0.97;;;8.10;99.90;;;;;;5033106;28;20478;-78
2022/12/30 10:54:36;;;;;;;4.53;1.00;;;8.10;99.90;;;;;;5033092;28;20022;-78
2022/12/30 10:57:02;;;;;;;7.33;1.20;;;8.20;99.90;;;;;;5034141;28;20481;-79
2022/12/30 10:59:28;;;;;;;3.77;0.93;;;8.20;99.90;;;;;;5015615;28;20034;-78
2022/12/30 11:02:14;;;;;;;5.10;0.93;;;8.20;99.90;;;;;;5015850;28;20033;-78
2022/12/30 11:04:41;;;;;;;8.57;2.13;;;8.20;99.90;;;;;;5048861;28;20497;-78
2022/12/30 11:07:16;;;;;;;9.40;1.23;;;8.20;99.90;;;;;;5031632;28;20046;-78
2022/12/30 11:09:44;;;;;;;10.17;1.20;;;8.30;99.90;;;;;;5031374;28;20034;-78
2022/12/30 11:15:22;;;;;;;7.93;1.30;;;8.30;99.90;;;;;;5031735;28;20524;-79
2022/12/30 11:17:52;;;;;;;5.73;1.30;;;8.30;99.90;;;;;;5032415;28;20018;-78
2022/12/30 11:20:32;;;;;;;11.27;1.90;;;8.30;99.90;;;;;;5031725;28;20064;-80
2022/12/30 11:23:00;;;;;;;7.80;1.30;;;8.40;99.90;;;;;;5031031;28;20032;-80
2022/12/30 11:25:42;;;;;;;9.10;1.37;;;8.40;99.90;;;;;;5033692;28;20036;-80
2022/12/30 11:28:18;;;;;;;9.90;1.10;;;8.40;99.90;;;;;;5032298;28;20053;-80
2022/12/30 11:30:55;;;;;;;6.40;1.13;;;8.40;99.90;;;;;;5032268;28;20024;-80
2022/12/30 11:33:37;;;;;;;8.57;0.83;;;8.40;99.90;;;;;;5032335;28;20075;-81
2022/12/30 11:36:12;;;;;;;9.13;1.93;;;8.40;99.80;;;;;;5031552;28;20418;-80
2022/12/30 11:38:40;;;;;;;4.90;1.60;;;8.40;99.70;;;;;;5032293;28;20374;-80
2022/12/30 11:41:20;;;;;;;4.97;1.00;;;8.40;99.70;;;;;;5032161;28;20025;-80
2022/12/30 11:43:58;;;;;;;5.03;1.17;;;8.50;99.70;;;;;;5032210;28;20021;-80
2022/12/30 11:46:28;;;;;;;4.77;0.80;;;8.50;99.60;;;;;;5032023;28;20088;-80
2022/12/30 11:49:18;;;;;;;8.53;1.20;;;8.50;99.50;;;;;;5033133;28;20060;-79
2022/12/30 11:51:50;;;;;;;11.03;1.17;;;8.50;99.50;;;;;;5033258;28;20027;-79
2022/12/30 11:54:24;;;;;;;5.60;1.80;;;8.50;99.50;;;;;;5032215;28;20030;-79
2022/12/30 11:57:03;;;;;;;7.13;1.27;;;8.50;99.40;;;;;;5033432;28;20049;-79
2022/12/30 11:59:34;;;;;;;8.80;1.10;;;8.60;99.30;;;;;;5032263;28;20048;-81
2022/12/30 12:02:04;;;;;;;6.60;1.63;;;8.60;99.00;;;;;;5031762;28;20470;-79
2022/12/30 12:04:40;;;;;;;6.03;0.90;;;8.60;99.10;;;;;;5032014;28;20017;-78
2022/12/30 12:07:18;;;;;;;8.50;1.00;;;8.60;99.10;;;;;;5031273;28;20486;-79
2022/12/30 12:10:05;;;;;;;7.13;1.30;;;8.70;98.90;;;;;;5033138;28;20056;-78
2022/12/30 12:12:38;;;;;;;12.60;2.10;;;8.70;98.80;;;;;;5031177;28;20022;-79
2022/12/30 12:15:20;;;;;;;6.45;1.08;;;8.70;98.70;;;;;;5031542;28;20429;-78
2022/12/30 12:17:56;;;;;;;6.03;1.13;;;8.70;98.60;;;;;;5031024;28;20402;-78
2022/12/30 12:20:28;;;;;;;5.50;1.10;;;8.70;98.60;;;;;;5030829;28;20093;-79
2022/12/30 12:23:41;;;;;;;6.87;0.90;;;8.70;98.40;;;;;;5030445;28;20023;-79
2022/12/30 12:26:11;;;;;;;5.97;1.20;;;8.80;98.40;;;;;;5021657;28;20083;-77
2022/12/30 12:28:41;;;;;;;5.27;0.87;;;8.80;98.40;;;;;;5030886;28;20103;-78
2022/12/30 12:31:31;;;;;;;8.87;1.13;;;8.80;98.40;;;;;;5031592;28;20355;-78
2022/12/30 12:34:06;;;;;;;6.40;1.30;;;8.80;98.30;;;;;;5031240;28;20018;-78
2022/12/30 12:36:56;;;;;;;4.97;0.87;;;8.80;98.20;;;;;;5031541;28;20036;-78
2022/12/30 12:39:42;;;;;;;7.00;0.93;;;8.80;98.10;;;;;;5031572;28;20499;-78
2022/12/30 12:42:21;;;;;;;8.93;1.10;;;8.90;98.30;;;;;;5031644;28;20027;-79
2022/12/30 12:45:11;;;;;;;5.27;0.70;;;8.90;98.00;;;;;;5031578;28;20021;-79
2022/12/30 12:47:36;;;;;;;9.60;1.10;;;8.90;98.00;;;;;;5031874;28;20493;-78
2022/12/30 12:50:18;;;;;;;8.67;0.80;;;8.90;98.00;;;;;;5035398;28;20037;-79
2022/12/30 12:53:02;;;;;;;5.40;1.20;;;9.00;98.10;;;;;;5035656;28;20474;-78
2022/12/30 12:56:02;;;;;;;8.50;1.65;;;9.00;98.20;;;;;;5035389;28;20026;-78
2022/12/30 12:58:34;;;;;;;6.23;1.17;;;9.00;98.30;;;;;;5035374;28;20612;-78
2022/12/30 13:01:26;;;;;;;9.97;1.53;;;9.00;98.30;;;;;;5035383;28;20036;-78
2022/12/30 13:04:17;;;;;;;10.27;1.10;;;9.00;98.20;;;;;;5035112;28;20052;-78
2022/12/30 13:07:08;;;;;;;8.80;0.90;;;9.00;98.30;;;;;;5034944;28;20085;-79
2022/12/30 13:10:13;;;;;;;8.63;1.23;;;9.00;98.40;;;;;;5035149;28;20549;-79
2022/12/30 13:12:59;;;;;;;6.97;1.10;;;9.10;98.70;;;;;;5034752;28;20036;-78
2022/12/30 13:15:37;;;;;;;8.90;1.10;;;9.00;99.00;;;;;;5035294;28;20496;-79
2022/12/30 13:18:08;;;;;;;5.53;1.07;;;9.00;99.20;;;;;;5036346;28;20030;-79
2022/12/30 13:20:55;;;;;;;6.37;1.00;;;9.00;99.60;;;;;;5034742;28;20060;-78
2022/12/30 13:23:25;;;;;;;9.47;1.17;;;9.00;99.90;;;;;;5034675;28;20033;-77
2022/12/30 13:26:09;;;;;;;8.07;1.27;;;9.00;99.90;;;;;;5036087;28;20438;-78
2022/12/30 13:28:35;;;;;;;5.18;0.98;;;9.00;99.90;;;;;;5034714;28;20448;-78
2022/12/30 13:31:19;;;;;;;10.07;1.30;;;9.00;99.90;;;;;;5035074;28;20053;-78
2022/12/30 13:34:00;;;;;;;14.20;1.88;;;9.00;99.90;;;;;;5034745;28;20025;-77
2022/12/30 13:36:59;;;;;;;9.70;2.47;;;9.00;99.90;;;;;;5034652;28;20052;-79
2022/12/30 13:39:44;;;;;;;5.77;1.10;;;9.00;99.90;;;;;;5034540;28;20037;-79
2022/12/30 13:42:21;;;;;;;6.33;1.70;;;8.90;99.90;;;;;;5034557;28;20026;-79
2022/12/30 13:44:47;;;;;;;8.20;1.30;;;8.90;99.90;;;;;;5034852;28;20041;-79
2022/12/30 13:47:37;;;;;;;6.93;1.30;;;8.90;99.90;;;;;;5018114;28;20113;-79
2022/12/30 13:50:26;;;;;;;8.67;1.20;;;8.90;99.90;;;;;;5034415;28;20021;-77
2022/12/30 13:52:55;;;;;;;6.80;1.43;;;8.90;99.90;;;;;;5035593;28;20033;-80
2022/12/30 13:55:38;;;;;;;6.73;1.10;;;8.90;99.90;;;;;;5034561;28;20028;-79
2022/12/30 13:58:30;;;;;;;8.10;1.53;;;8.80;99.90;;;;;;5033802;28;20485;-78
2022/12/30 14:01:20;;;;;;;5.63;1.00;;;8.80;99.90;;;;;;5033961;28;20043;-77
2022/12/30 14:03:47;;;;;;;10.40;1.60;;;8.80;99.90;;;;;;5033855;28;20030;-77